Time;durP1;ratioP1;P1;durP2;ratioP2;P2;SDS_P1;SDS_P2;PMS_P1;PMS_P2;Temp;Humidity;BMP_temperature;BMP_pressure;BME280_temperature;BME280_humidity;BME280_pressure;Samples;Min_cycle;Max_cycle;Signal;HPM_P1;HPM_P2
2023/12/16 00:01:28;;;;;;;10.10;6.10;;;;;;;-0.09;89.00;101868.80;107743;1257;76205;-68
2023/12/16 00:03:55;;;;;;;11.30;6.60;;;;;;;-0.11;89.04;101862.52;107901;1257;71618;-67
2023/12/16 00:06:23;;;;;;;10.50;6.00;;;;;;;-0.11;89.39;101865.59;107902;1257;72723;-67
2023/12/16 00:08:51;;;;;;;10.90;6.60;;;;;;;-0.12;89.61;101865.10;107968;1257;60437;-70
2023/12/16 00:11:18;;;;;;;10.70;6.20;;;;;;;-0.14;89.76;101864.85;107997;1256;60388;-69
2023/12/16 00:13:46;;;;;;;9.40;6.00;;;;;;;-0.11;90.13;101869.17;107985;1257;72805;-68
2023/12/16 00:16:14;;;;;;;11.80;6.60;;;;;;;-0.10;90.36;101880.06;108083;1257;70592;-68
2023/12/16 00:18:42;;;;;;;9.50;6.10;;;;;;;-0.09;90.60;101880.48;108105;1259;72811;-69
2023/12/16 00:21:09;;;;;;;10.40;6.50;;;;;;;-0.06;90.74;101881.82;107957;1258;60297;-68
2023/12/16 00:23:37;;;;;;;12.50;6.80;;;;;;;-0.07;90.77;101880.30;108000;1257;60332;-69
2023/12/16 00:26:05;;;;;;;10.50;6.30;;;;;;;-0.06;91.14;101880.38;107964;1255;73762;-68
2023/12/16 00:28:33;;;;;;;10.50;6.60;;;;;;;-0.03;91.26;101878.81;107975;1260;72752;-69
2023/12/16 00:31:01;;;;;;;9.90;6.40;;;;;;;-0.01;91.24;101880.50;108084;1257;72800;-68
2023/12/16 00:33:28;;;;;;;9.90;5.90;;;;;;;0.00;91.66;101873.27;108211;1257;60411;-68
2023/12/16 00:35:56;;;;;;;10.70;6.10;;;;;;;0.02;91.58;101868.40;107862;1262;60337;-69
2023/12/16 00:38:25;;;;;;;12.50;6.20;;;;;;;0.01;91.63;101876.67;108018;1260;73855;-68
2023/12/16 00:40:52;;;;;;;10.80;6.00;;;;;;;-0.00;91.53;101876.11;107988;1259;73711;-68
2023/12/16 00:43:20;;;;;;;11.20;6.60;;;;;;;-0.02;91.71;101878.86;108103;1256;72694;-68
2023/12/16 00:45:48;;;;;;;9.70;6.20;;;;;;;-0.02;91.87;101885.85;108068;1259;61082;-69
2023/12/16 00:48:15;;;;;;;10.10;6.20;;;;;;;-0.01;91.95;101889.27;108273;1257;60410;-68
2023/12/16 00:50:43;;;;;;;10.60;6.00;;;;;;;-0.01;92.25;101891.23;108006;1258;72616;-67
2023/12/16 00:53:12;;;;;;;9.30;5.60;;;;;;;-0.01;92.40;101878.98;108002;1257;72708;-68
2023/12/16 00:55:40;;;;;;;8.70;5.60;;;;;;;-0.00;92.33;101878.38;108199;1260;71702;-68
2023/12/16 00:58:08;;;;;;;8.90;5.60;;;;;;;0.01;92.55;101877.05;108217;1256;60952;-68
2023/12/16 01:00:36;;;;;;;10.90;6.30;;;;;;;0.02;92.56;101872.94;108298;1259;60270;-68
2023/12/16 01:03:04;;;;;;;9.80;5.90;;;;;;;0.03;92.80;101876.52;108072;1258;72564;-70
2023/12/16 01:05:32;;;;;;;10.00;6.10;;;;;;;0.06;92.53;101873.05;107926;1257;72696;-69
2023/12/16 01:08:00;;;;;;;11.70;6.20;;;;;;;0.05;92.78;101875.38;107931;1260;71871;-70
2023/12/16 01:10:28;;;;;;;9.80;5.80;;;;;;;0.05;92.87;101876.34;107899;1256;60915;-68
2023/12/16 01:12:57;;;;;;;9.70;5.90;;;;;;;0.04;92.82;101877.31;108074;1256;60504;-67
2023/12/16 01:15:24;;;;;;;11.20;6.60;;;;;;;0.04;92.80;101875.41;108021;1257;73856;-67
2023/12/16 01:17:52;;;;;;;11.00;6.20;;;;;;;0.04;93.07;101870.29;108088;1257;71518;-67
2023/12/16 01:20:20;;;;;;;8.50;5.30;;;;;;;0.02;92.90;101866.64;107979;1256;71291;-68
2023/12/16 01:22:48;;;;;;;10.00;5.90;;;;;;;0.00;93.14;101866.96;107979;1257;60488;-68
2023/12/16 01:25:15;;;;;;;11.50;6.30;;;;;;;-0.01;93.21;101871.21;108127;1257;59963;-69
2023/12/16 01:27:43;;;;;;;11.10;6.30;;;;;;;-0.01;93.42;101868.62;108107;1260;73100;-68
2023/12/16 01:30:11;;;;;;;11.80;6.80;;;;;;;-0.00;93.72;101865.96;108129;1257;71838;-68
2023/12/16 01:32:38;;;;;;;12.10;7.00;;;;;;;0.00;93.70;101866.61;107948;1256;71433;-69
2023/12/16 01:35:06;;;;;;;12.20;6.90;;;;;;;-0.00;93.90;101874.02;108000;1256;60316;-68
2023/12/16 01:37:34;;;;;;;12.30;6.40;;;;;;;-0.01;93.94;101862.90;108087;1257;59956;-68
2023/12/16 01:40:03;;;;;;;11.60;6.90;;;;;;;-0.03;94.07;101858.83;107937;1257;73902;-68
2023/12/16 01:42:31;;;;;;;11.10;6.00;;;;;;;-0.03;94.13;101856.07;108101;1257;71348;-68
2023/12/16 01:44:58;;;;;;;12.70;6.90;;;;;;;-0.03;94.26;101859.52;108085;1255;72702;-68
2023/12/16 01:47:26;;;;;;;10.80;6.20;;;;;;;-0.04;94.50;101864.24;107837;1256;60973;-68
2023/12/16 01:49:54;;;;;;;13.00;7.20;;;;;;;-0.07;94.58;101867.33;107969;1257;59442;-68
2023/12/16 01:52:22;;;;;;;12.50;7.10;;;;;;;-0.07;94.91;101869.42;107819;1261;71425;-67
2023/12/16 01:54:49;;;;;;;11.70;6.80;;;;;;;-0.05;95.29;101868.34;107739;1261;71496;-68
2023/12/16 01:57:17;;;;;;;13.70;6.80;;;;;;;-0.03;95.58;101873.70;107781;1257;71389;-69
2023/12/16 01:59:45;;;;;;;10.90;6.50;;;;;;;0.00;95.52;101869.95;107990;1257;61061;-68
2023/12/16 02:02:12;;;;;;;10.60;6.30;;;;;;;0.01;95.54;101871.59;108084;1257;60476;-67
2023/12/16 02:04:40;;;;;;;11.70;6.70;;;;;;;0.01;95.49;101870.05;108145;1255;73877;-68
2023/12/16 02:07:08;;;;;;;11.50;6.30;;;;;;;0.01;95.50;101872.38;108169;1256;72021;-69
2023/12/16 02:09:35;;;;;;;11.50;6.90;;;;;;;-0.01;95.76;101873.52;107755;1257;229017;-70
2023/12/16 02:12:03;;;;;;;10.50;6.40;;;;;;;0.00;95.74;101871.69;107971;1257;60851;-67
2023/12/16 02:14:32;;;;;;;12.30;6.70;;;;;;;0.03;95.89;101880.91;108065;1256;60319;-69
2023/12/16 02:16:59;;;;;;;11.40;6.90;;;;;;;0.04;96.03;101884.81;108029;1255;72540;-67
2023/12/16 02:19:27;;;;;;;10.20;6.50;;;;;;;0.05;96.02;101889.80;108145;1256;72370;-67
2023/12/16 02:21:55;;;;;;;12.10;6.80;;;;;;;0.09;96.27;101897.38;107972;1257;72523;-67
2023/12/16 02:24:23;;;;;;;11.10;6.90;;;;;;;0.14;96.59;101900.04;108069;1257;60500;-67
2023/12/16 02:26:50;;;;;;;10.80;6.60;;;;;;;0.18;96.43;101896.98;107982;1256;60523;-69
2023/12/16 02:29:18;;;;;;;11.90;6.90;;;;;;;0.23;96.70;101892.66;108064;1257;73847;-68
2023/12/16 02:31:46;;;;;;;12.00;7.00;;;;;;;0.29;96.62;101899.48;108178;1257;70717;-68
2023/12/16 02:34:13;;;;;;;13.10;7.00;;;;;;;0.33;96.49;101897.77;107944;1257;74792;-68
2023/12/16 02:36:41;;;;;;;10.60;6.50;;;;;;;0.36;96.41;101899.26;107998;1257;60367;-68
2023/12/16 02:39:09;;;;;;;10.40;6.70;;;;;;;0.39;96.03;101900.30;108096;1258;60449;-68
2023/12/16 02:41:36;;;;;;;9.40;6.50;;;;;;;0.44;96.04;101896.45;108192;1257;73828;-67
2023/12/16 02:44:04;;;;;;;12.80;6.90;;;;;;;0.48;95.85;101893.77;108111;1257;71005;-68
2023/12/16 02:46:32;;;;;;;8.70;6.10;;;;;;;0.52;95.73;101892.04;108091;1258;72921;-68
2023/12/16 02:48:59;;;;;;;9.90;6.30;;;;;;;0.53;95.97;101896.81;108006;1257;60446;-68
2023/12/16 02:51:29;;;;;;;9.50;6.20;;;;;;;0.56;95.74;101896.14;108111;1257;60431;-68
2023/12/16 02:53:56;;;;;;;10.60;5.70;;;;;;;0.60;95.66;101900.63;108056;1257;73852;-68
2023/12/16 02:56:24;;;;;;;10.40;6.40;;;;;;;0.63;95.49;101907.89;107814;1256;73043;-67
2023/12/16 02:58:51;;;;;;;11.00;6.20;;;;;;;0.63;95.26;101914.02;108047;1257;72114;-68
2023/12/16 03:01:19;;;;;;;11.90;6.00;;;;;;;0.63;94.96;101913.08;108098;1256;60902;-67
2023/12/16 03:03:47;;;;;;;9.10;5.00;;;;;;;0.63;94.66;101918.35;108011;1257;60322;-68
2023/12/16 03:06:15;;;;;;;10.20;6.10;;;;;;;0.61;94.66;101913.48;108132;1255;72561;-68
2023/12/16 03:08:43;;;;;;;9.10;6.00;;;;;;;0.62;94.33;101914.27;108013;1258;72727;-69
2023/12/16 03:11:11;;;;;;;10.90;6.40;;;;;;;0.61;94.05;101911.86;108023;1259;72359;-68
2023/12/16 03:13:39;;;;;;;9.10;5.60;;;;;;;0.63;94.11;101911.02;108111;1260;59273;-68
2023/12/16 03:16:06;;;;;;;9.50;6.20;;;;;;;0.64;94.09;101909.11;108096;1257;60444;-68
2023/12/16 03:18:34;;;;;;;10.50;6.10;;;;;;;0.65;94.11;101910.31;107996;1257;73928;-69
2023/12/16 03:21:05;;;;;;;10.20;6.30;;;;;;;0.59;93.86;101912.45;108014;1257;72520;-68
2023/12/16 03:23:33;;;;;;;12.40;7.20;;;;;;;0.52;94.13;101910.08;108165;1257;71303;-69
2023/12/16 03:26:01;;;;;;;12.10;7.70;;;;;;;0.51;94.33;101911.05;108011;1256;60911;-68
2023/12/16 03:28:28;;;;;;;10.80;6.60;;;;;;;0.52;94.43;101912.00;108110;1256;60344;-68
2023/12/16 03:30:56;;;;;;;11.60;7.30;;;;;;;0.52;94.40;101923.71;108086;1255;73850;-68
2023/12/16 03:33:24;;;;;;;9.20;5.90;;;;;;;0.51;94.73;101925.36;107976;1257;72723;-68
2023/12/16 03:35:52;;;;;;;9.70;7.00;;;;;;;0.49;94.99;101927.89;107992;1260;72665;-68
2023/12/16 03:38:19;;;;;;;10.30;7.20;;;;;;;0.47;95.31;101932.45;107981;1256;60450;-68
2023/12/16 03:40:47;;;;;;;12.70;8.00;;;;;;;0.47;95.47;101934.02;108052;1259;60440;-68
2023/12/16 03:43:16;;;;;;;12.60;7.70;;;;;;;0.48;95.86;101933.60;108012;1260;72519;-68
2023/12/16 03:45:44;;;;;;;14.40;8.20;;;;;;;0.47;96.20;101935.27;108112;1259;72923;-68
2023/12/16 03:48:11;;;;;;;14.20;8.90;;;;;;;0.47;96.39;101935.94;108003;1258;70498;-69
2023/12/16 03:50:39;;;;;;;15.70;9.10;;;;;;;0.51;96.96;101939.23;107843;1257;61000;-68
2023/12/16 03:53:07;;;;;;;15.20;9.10;;;;;;;0.55;97.27;101932.05;107952;1258;60348;-69
2023/12/16 03:55:34;;;;;;;16.20;10.10;;;;;;;0.59;97.72;101933.13;107849;1257;74370;-69
2023/12/16 03:58:02;;;;;;;15.60;9.70;;;;;;;0.62;97.79;101931.27;108184;1257;71464;-68
2023/12/16 04:00:30;;;;;;;15.30;9.50;;;;;;;0.64;98.14;101931.94;108171;1257;72673;-68
2023/12/16 04:02:57;;;;;;;16.90;10.20;;;;;;;0.66;98.33;101935.89;108034;1257;60885;-68
2023/12/16 04:05:25;;;;;;;14.50;9.90;;;;;;;0.69;98.39;101938.98;108075;1255;60197;-68
2023/12/16 04:07:53;;;;;;;17.80;10.70;;;;;;;0.70;98.46;101941.80;108025;1257;73959;-68
2023/12/16 04:10:20;;;;;;;19.40;10.70;;;;;;;0.70;98.64;101941.98;107994;1257;71596;-68
2023/12/16 04:12:48;;;;;;;19.30;11.00;;;;;;;0.73;98.84;101942.96;108035;1260;72684;-68
2023/12/16 04:15:16;;;;;;;18.10;11.00;;;;;;;0.74;99.14;101943.16;107984;1256;60429;-69
2023/12/16 04:17:43;;;;;;;20.90;11.60;;;;;;;0.78;99.36;101947.94;108159;1256;60523;-68
2023/12/16 04:20:11;;;;;;;16.80;10.20;;;;;;;0.76;99.32;101952.27;108050;1257;71624;-68
2023/12/16 04:22:39;;;;;;;18.10;10.40;;;;;;;0.74;99.62;101957.10;108092;1257;72128;-69
2023/12/16 04:25:10;;;;;;;16.90;10.20;;;;;;;0.73;99.66;101955.80;108119;1257;72660;-68
2023/12/16 04:27:38;;;;;;;20.50;11.30;;;;;;;0.71;100.00;101963.68;108082;1257;60210;-67
2023/12/16 04:30:07;;;;;;;19.40;11.20;;;;;;;0.70;100.00;101964.59;108003;1257;59541;-67
2023/12/16 04:32:35;;;;;;;19.90;12.10;;;;;;;0.75;100.00;101959.96;108009;1257;74466;-68
2023/12/16 04:35:03;;;;;;;21.80;12.70;;;;;;;0.78;100.00;101962.92;108120;1256;71596;-69
2023/12/16 04:37:30;;;;;;;22.20;12.70;;;;;;;0.81;100.00;101965.27;107864;1257;72708;-67
2023/12/16 04:39:58;;;;;;;20.50;12.70;;;;;;;0.81;100.00;101967.84;108015;1257;60879;-69
2023/12/16 04:42:25;;;;;;;21.80;12.30;;;;;;;0.85;100.00;101963.94;108036;1257;60219;-68
2023/12/16 04:44:54;;;;;;;21.20;12.00;;;;;;;0.89;100.00;101968.27;108039;1257;73878;-68
2023/12/16 04:47:21;;;;;;;22.50;12.60;;;;;;;0.89;100.00;101964.73;108161;1257;72735;-68
2023/12/16 04:49:49;;;;;;;18.60;12.00;;;;;;;0.92;100.00;101962.06;108066;1257;71379;-68
2023/12/16 04:52:17;;;;;;;18.90;11.90;;;;;;;0.90;100.00;101962.27;108134;1260;60347;-68
2023/12/16 04:54:45;;;;;;;19.40;11.90;;;;;;;0.87;100.00;101961.42;108041;1256;60392;-68
2023/12/16 04:57:13;;;;;;;18.90;11.90;;;;;;;0.85;100.00;101957.29;107883;1262;73810;-68
2023/12/16 04:59:40;;;;;;;20.20;12.70;;;;;;;0.84;100.00;101954.89;107843;1256;72536;-68
2023/12/16 05:02:08;;;;;;;20.80;12.70;;;;;;;0.86;100.00;101964.19;108117;1256;71730;-67
2023/12/16 05:04:36;;;;;;;20.10;12.50;;;;;;;0.89;100.00;101964.09;108116;1256;60321;-68
2023/12/16 05:07:03;;;;;;;23.10;14.70;;;;;;;0.90;100.00;101967.71;108023;1257;60357;-68
2023/12/16 05:09:31;;;;;;;21.40;13.20;;;;;;;0.91;100.00;101972.41;108133;1257;72618;-68
2023/12/16 05:11:59;;;;;;;19.50;12.20;;;;;;;0.91;100.00;101972.09;108134;1257;72772;-67
2023/12/16 05:14:26;;;;;;;20.30;13.40;;;;;;;0.92;100.00;101971.10;107813;1257;72478;-68
2023/12/16 05:16:54;;;;;;;19.60;12.90;;;;;;;0.93;100.00;101972.73;107921;1257;60347;-69
2023/12/16 05:19:22;;;;;;;21.10;13.40;;;;;;;0.95;100.00;101969.40;108035;1256;60457;-69
2023/12/16 05:21:50;;;;;;;21.40;12.90;;;;;;;0.96;100.00;101969.69;107835;1257;73846;-68
2023/12/16 05:24:18;;;;;;;19.70;12.90;;;;;;;0.97;100.00;101969.45;107991;1257;73171;-68
2023/12/16 05:26:46;;;;;;;20.80;13.70;;;;;;;0.96;100.00;101970.56;108013;1256;72469;-69
2023/12/16 05:29:13;;;;;;;21.10;12.70;;;;;;;0.94;100.00;101970.85;108016;1257;60924;-68
2023/12/16 05:31:41;;;;;;;19.60;13.10;;;;;;;0.93;100.00;101971.20;107980;1255;60058;-68
2023/12/16 05:34:10;;;;;;;21.40;13.20;;;;;;;0.91;100.00;101965.48;108130;1257;73841;-68
2023/12/16 05:36:38;;;;;;;22.60;13.50;;;;;;;0.88;100.00;101965.70;108028;1257;71786;-67
2023/12/16 05:39:07;;;;;;;18.00;12.00;;;;;;;0.87;100.00;101967.77;108004;1256;72648;-67
2023/12/16 05:41:35;;;;;;;22.50;14.00;;;;;;;0.85;100.00;101971.11;108153;1257;60846;-66
2023/12/16 05:44:03;;;;;;;23.30;14.30;;;;;;;0.82;100.00;101971.06;108003;1255;60803;-67
2023/12/16 05:46:31;;;;;;;21.80;14.00;;;;;;;0.82;100.00;101972.36;108049;1256;72677;-68
2023/12/16 05:48:58;;;;;;;20.70;13.10;;;;;;;0.84;100.00;101976.56;108145;1257;71722;-67
2023/12/16 05:51:26;;;;;;;22.00;14.40;;;;;;;0.83;100.00;101978.50;108058;1256;71392;-68
2023/12/16 05:53:54;;;;;;;21.00;12.80;;;;;;;0.84;100.00;101981.63;107871;1256;60183;-67
2023/12/16 05:56:21;;;;;;;23.30;14.20;;;;;;;0.85;100.00;101984.49;107886;1257;60178;-68
2023/12/16 05:58:49;;;;;;;22.40;14.60;;;;;;;0.85;100.00;101985.87;107866;1260;73849;-68
2023/12/16 06:01:19;;;;;;;22.40;13.60;;;;;;;0.88;100.00;101987.14;107908;1256;72932;-71
2023/12/16 06:03:48;;;;;;;23.50;15.10;;;;;;;0.89;100.00;101992.29;107960;1256;71405;-67
2023/12/16 06:06:16;;;;;;;22.50;14.90;;;;;;;0.92;100.00;101996.23;108125;1256;60926;-67
2023/12/16 06:08:43;;;;;;;25.70;16.10;;;;;;;0.93;100.00;102002.21;108083;1257;58801;-68
2023/12/16 06:11:14;;;;;;;24.60;15.40;;;;;;;0.93;100.00;101997.28;108155;1257;72575;-67
2023/12/16 06:13:42;;;;;;;24.70;15.10;;;;;;;0.96;100.00;101997.92;108011;1256;71226;-68
2023/12/16 06:16:13;;;;;;;25.10;15.70;;;;;;;0.97;100.00;101994.80;108027;1256;71993;-69
2023/12/16 06:18:47;;;;;;;25.10;14.30;;;;;;;0.99;100.00;102001.67;107991;1257;60444;-67
2023/12/16 06:21:16;;;;;;;22.80;14.80;;;;;;;0.99;100.00;102004.64;108046;1256;60309;-67
2023/12/16 06:23:43;;;;;;;21.40;14.00;;;;;;;1.00;100.00;102010.96;107934;1255;72111;-70
2023/12/16 06:26:11;;;;;;;22.10;13.90;;;;;;;1.03;100.00;102012.45;108064;1256;71570;-67
2023/12/16 06:28:39;;;;;;;22.10;14.30;;;;;;;1.07;100.00;102011.55;108121;1256;72735;-68
2023/12/16 06:31:17;;;;;;;22.90;14.80;;;;;;;1.09;100.00;102010.77;108026;1255;60460;-68
2023/12/16 06:33:45;;;;;;;21.90;14.00;;;;;;;1.12;100.00;102008.88;108085;1256;60402;-68
2023/12/16 06:36:12;;;;;;;23.40;14.90;;;;;;;1.14;100.00;102011.25;108091;1256;73870;-68
2023/12/16 06:38:40;;;;;;;25.20;16.40;;;;;;;1.15;100.00;102017.84;108067;1257;71678;-68
2023/12/16 06:41:08;;;;;;;24.00;15.50;;;;;;;1.16;100.00;102016.10;108091;1256;72691;-68
2023/12/16 06:43:35;;;;;;;26.90;16.80;;;;;;;1.19;100.00;102020.16;108052;1257;60329;-68
2023/12/16 06:46:03;;;;;;;24.90;15.80;;;;;;;1.24;100.00;102025.20;108162;1257;62685;-69
2023/12/16 06:48:31;;;;;;;22.60;15.10;;;;;;;1.31;100.00;102032.92;107857;1257;73783;-68
2023/12/16 06:50:59;;;;;;;23.30;14.80;;;;;;;1.37;100.00;102036.40;107972;1257;72546;-69
2023/12/16 06:53:27;;;;;;;23.60;15.30;;;;;;;1.44;100.00;102039.39;107964;1256;72495;-67
2023/12/16 06:55:54;;;;;;;22.80;14.70;;;;;;;1.54;100.00;102042.93;107865;1255;59321;-67
2023/12/16 06:58:22;;;;;;;23.30;15.40;;;;;;;1.60;100.00;102047.16;108031;1257;60218;-68
2023/12/16 07:00:50;;;;;;;24.80;15.90;;;;;;;1.65;100.00;102043.51;108056;1257;73831;-68
2023/12/16 07:03:18;;;;;;;24.80;15.40;;;;;;;1.69;100.00;102035.56;107989;1259;72712;-67
2023/12/16 07:05:46;;;;;;;23.70;14.40;;;;;;;1.73;100.00;102033.42;107900;1257;71819;-68
2023/12/16 07:08:14;;;;;;;25.00;15.30;;;;;;;1.75;100.00;102039.00;107902;1257;61342;-68
2023/12/16 07:10:42;;;;;;;23.00;15.30;;;;;;;1.76;100.00;102042.88;107990;1256;60419;-69
2023/12/16 07:13:09;;;;;;;24.70;15.70;;;;;;;1.79;100.00;102037.46;107976;1256;73695;-68
2023/12/16 07:15:38;;;;;;;20.20;13.10;;;;;;;1.82;100.00;102032.27;107903;1257;71491;-68
2023/12/16 07:18:06;;;;;;;19.40;12.60;;;;;;;1.81;99.76;102034.08;108000;1257;72720;-69
2023/12/16 07:20:33;;;;;;;23.40;14.40;;;;;;;1.79;99.11;102033.66;107860;1256;60380;-68
2023/12/16 07:23:01;;;;;;;20.60;13.70;;;;;;;1.75;98.41;102038.08;107849;1257;60341;-68
2023/12/16 07:25:29;;;;;;;22.80;14.00;;;;;;;1.74;98.03;102041.91;107943;1254;74195;-68
2023/12/16 07:27:57;;;;;;;20.60;13.80;;;;;;;1.71;97.59;102039.39;108137;1254;72029;-68
2023/12/16 07:30:24;;;;;;;21.80;13.20;;;;;;;1.67;97.05;102041.21;107987;1256;73154;-67
2023/12/16 07:32:52;;;;;;;22.60;13.10;;;;;;;1.67;97.00;102045.70;107846;1255;60956;-68
2023/12/16 07:35:20;;;;;;;22.50;14.00;;;;;;;1.65;96.80;102044.27;108078;1257;59818;-69
2023/12/16 07:37:48;;;;;;;21.50;14.20;;;;;;;1.64;96.78;102040.81;108189;1256;73262;-68
2023/12/16 07:40:15;;;;;;;20.60;13.30;;;;;;;1.65;96.76;102042.16;108068;1257;71687;-70
2023/12/16 07:42:43;;;;;;;21.00;13.70;;;;;;;1.66;96.72;102043.13;108013;1257;71450;-69
2023/12/16 07:45:11;;;;;;;21.00;13.20;;;;;;;1.70;96.85;102037.60;108021;1256;60431;-68
2023/12/16 07:47:38;;;;;;;21.40;13.10;;;;;;;1.75;96.66;102046.76;107999;1257;60048;-69
2023/12/16 07:50:08;;;;;;;23.70;14.10;;;;;;;1.78;96.34;102048.88;107840;1256;72879;-69
2023/12/16 07:52:35;;;;;;;24.60;14.20;;;;;;;1.81;96.14;102055.77;108004;1257;72495;-67
2023/12/16 07:55:03;;;;;;;22.80;14.60;;;;;;;1.82;95.91;102060.67;108138;1257;72533;-68
2023/12/16 07:57:31;;;;;;;22.40;14.00;;;;;;;1.86;95.41;102059.23;108115;1256;59631;-67
2023/12/16 07:59:59;;;;;;;20.80;13.40;;;;;;;1.89;95.20;102054.39;108018;1257;60260;-69
2023/12/16 08:02:27;;;;;;;21.20;14.10;;;;;;;1.92;95.02;102055.42;108060;1255;73815;-68
2023/12/16 08:04:54;;;;;;;23.60;15.00;;;;;;;1.94;94.41;102054.38;108023;1257;72756;-69
2023/12/16 08:07:22;;;;;;;22.10;14.60;;;;;;;1.95;94.27;102049.33;108166;1256;72814;-67
2023/12/16 08:09:50;;;;;;;20.30;13.10;;;;;;;2.01;94.20;102053.95;108137;1255;60321;-67
2023/12/16 08:12:18;;;;;;;21.00;13.30;;;;;;;2.06;93.55;102060.93;108049;1256;60026;-69
2023/12/16 08:14:46;;;;;;;21.30;13.00;;;;;;;2.12;93.39;102055.95;107985;1256;73870;-67
2023/12/16 08:17:14;;;;;;;20.10;14.10;;;;;;;2.17;93.08;102050.83;107986;1257;72704;-70
2023/12/16 08:19:42;;;;;;;21.10;14.10;;;;;;;2.24;92.81;102053.27;107984;1257;71755;-67
2023/12/16 08:22:10;;;;;;;18.50;12.70;;;;;;;2.29;92.32;102043.40;108109;1256;60345;-68
2023/12/16 08:24:41;;;;;;;23.10;13.80;;;;;;;2.32;91.95;102041.95;108011;1256;60327;-69
2023/12/16 08:27:08;;;;;;;19.50;13.40;;;;;;;2.36;91.51;102036.35;108148;1259;72545;-68
2023/12/16 08:29:36;;;;;;;21.20;13.30;;;;;;;2.34;90.58;102034.55;107969;1257;72885;-69
2023/12/16 08:32:04;;;;;;;24.10;15.60;;;;;;;2.31;90.08;102031.38;107997;1256;72445;-69
2023/12/16 08:34:33;;;;;;;21.10;14.90;;;;;;;2.31;90.04;102036.31;108027;1257;60926;-68
2023/12/16 08:37:01;;;;;;;22.80;15.00;;;;;;;2.36;90.32;102041.03;108097;1257;60403;-68
2023/12/16 08:39:29;;;;;;;21.40;14.70;;;;;;;2.42;90.06;102040.26;107882;1255;73918;-69
2023/12/16 08:41:56;;;;;;;21.20;13.40;;;;;;;2.46;90.03;102036.40;108054;1256;72999;-70
2023/12/16 08:44:24;;;;;;;23.90;14.60;;;;;;;2.50;89.74;102028.16;108121;1257;72802;-71
2023/12/16 08:46:52;;;;;;;21.40;14.10;;;;;;;2.53;89.54;102023.91;107970;1255;60842;-69
2023/12/16 08:49:19;;;;;;;22.50;14.10;;;;;;;2.55;89.16;102016.25;108015;1255;61101;-69
2023/12/16 08:51:48;;;;;;;23.00;14.70;;;;;;;2.56;89.01;102019.34;108071;1257;72515;-68
2023/12/16 08:54:16;;;;;;;21.50;13.30;;;;;;;2.54;88.72;102018.98;107927;1257;71588;-69
2023/12/16 08:56:44;;;;;;;22.70;14.40;;;;;;;2.54;89.15;102015.53;107961;1256;72698;-71
2023/12/16 08:59:12;;;;;;;21.60;14.60;;;;;;;2.57;89.28;102021.35;107853;1256;62087;-71
2023/12/16 09:01:39;;;;;;;22.70;15.80;;;;;;;2.55;88.96;102023.27;107856;1261;60329;-70
2023/12/16 09:04:07;;;;;;;25.20;16.40;;;;;;;2.53;88.81;102013.29;108048;1257;72750;-69
2023/12/16 09:06:39;;;;;;;24.40;16.70;;;;;;;2.53;88.85;102003.85;108047;1256;72815;-68
2023/12/16 09:09:06;;;;;;;23.10;15.40;;;;;;;2.59;89.10;102001.10;108059;1257;72683;-70
2023/12/16 09:11:38;;;;;;;24.20;16.20;;;;;;;2.66;89.33;102003.20;108018;1257;60306;-70
2023/12/16 09:14:05;;;;;;;27.80;18.30;;;;;;;2.72;89.36;102012.11;108110;1255;60351;-71
2023/12/16 09:16:34;;;;;;;25.60;17.00;;;;;;;2.79;89.09;102008.02;108102;1257;73875;-70
2023/12/16 09:19:03;;;;;;;23.40;15.20;;;;;;;2.90;89.35;102006.13;108097;1257;71587;-69
2023/12/16 09:21:31;;;;;;;25.50;17.10;;;;;;;2.99;89.01;101998.98;108135;1257;72687;-70
2023/12/16 09:23:59;;;;;;;25.60;16.50;;;;;;;3.07;88.71;101998.40;108080;1257;60203;-70
2023/12/16 09:26:27;;;;;;;23.70;15.90;;;;;;;3.11;87.50;102003.40;107964;1257;60155;-71
2023/12/16 09:28:54;;;;;;;23.40;15.40;;;;;;;3.07;86.51;102002.64;108017;1256;72611;-70
2023/12/16 09:31:22;;;;;;;24.10;15.30;;;;;;;3.02;85.71;102004.95;107950;1256;71437;-70
2023/12/16 09:33:50;;;;;;;22.40;15.10;;;;;;;3.00;85.80;102002.66;107918;1256;71183;-69
2023/12/16 09:36:18;;;;;;;24.60;15.80;;;;;;;3.01;85.67;102003.11;108021;1256;60409;-71
2023/12/16 09:38:45;;;;;;;24.30;15.80;;;;;;;3.01;85.33;102000.83;108144;1256;60315;-71
2023/12/16 09:41:23;;;;;;;25.10;16.60;;;;;;;3.02;85.17;101996.30;107910;1257;73884;-72
2023/12/16 09:43:58;;;;;;;26.40;16.80;;;;;;;2.81;86.36;101989.89;108400;1256;72620;-71
2023/12/16 09:46:30;;;;;;;24.20;16.00;;;;;;;2.75;87.62;101990.70;108140;1257;71767;-70
2023/12/16 09:48:59;;;;;;;25.40;17.30;;;;;;;2.77;88.34;101985.35;108275;1256;60273;-70
2023/12/16 09:51:27;;;;;;;20.00;13.90;;;;;;;2.83;88.93;101989.79;107920;1256;60234;-70
2023/12/16 09:53:54;;;;;;;22.20;15.30;;;;;;;2.86;89.01;101993.13;107918;1256;72844;-71
2023/12/16 09:56:24;;;;;;;23.60;15.00;;;;;;;2.85;88.88;101991.73;107978;1257;73583;-71
2023/12/16 09:58:52;;;;;;;24.40;16.30;;;;;;;2.82;88.81;101990.95;108136;1255;72738;-70
2023/12/16 10:01:20;;;;;;;23.80;16.30;;;;;;;2.79;89.15;101992.87;107856;1256;61434;-71
2023/12/16 10:03:48;;;;;;;23.90;15.20;;;;;;;2.81;89.63;101994.21;107940;1257;60312;-70
2023/12/16 10:06:16;;;;;;;23.00;15.70;;;;;;;2.79;89.84;101991.98;107879;1261;72653;-70
2023/12/16 10:08:44;;;;;;;22.40;15.20;;;;;;;2.78;89.83;101987.23;107940;1256;71690;-71
2023/12/16 10:11:12;;;;;;;21.90;14.90;;;;;;;2.75;90.26;101985.49;108042;1257;72721;-71
2023/12/16 10:14:00;;;;;;;22.60;14.90;;;;;;;2.73;90.67;101981.67;107873;1257;60455;-71
2023/12/16 10:16:29;;;;;;;20.30;13.90;;;;;;;2.72;91.07;101979.04;108001;1256;60286;-70
2023/12/16 10:19:38;;;;;;;21.00;13.50;;;;;;;2.68;91.67;101975.46;107890;1257;71884;-71
2023/12/16 10:22:05;;;;;;;22.60;14.50;;;;;;;2.69;92.14;101970.27;108001;1256;72982;-71
2023/12/16 10:24:34;;;;;;;20.20;13.10;;;;;;;2.68;92.31;101965.79;107989;1256;71671;-72
2023/12/16 10:27:02;;;;;;;19.80;13.50;;;;;;;2.67;92.75;101964.05;107984;1257;60207;-70
2023/12/16 10:29:32;;;;;;;21.20;13.70;;;;;;;2.67;93.15;101963.80;107861;1256;60849;-69
2023/12/16 10:32:00;;;;;;;21.00;14.30;;;;;;;2.66;93.41;101959.50;108124;1256;73884;-70
2023/12/16 10:34:31;;;;;;;21.20;14.50;;;;;;;2.68;93.87;101958.45;108200;1255;71919;-71
2023/12/16 10:37:06;;;;;;;19.80;13.70;;;;;;;2.76;94.71;101953.13;108057;1255;71523;-72
2023/12/16 10:39:35;;;;;;;20.70;14.10;;;;;;;2.87;95.10;101942.73;108009;1256;60949;-71
2023/12/16 10:42:03;;;;;;;20.70;14.20;;;;;;;2.96;95.08;101940.91;108226;1255;60340;-71
2023/12/16 10:44:31;;;;;;;20.20;13.40;;;;;;;2.99;95.28;101941.05;108096;1256;71703;-71
2023/12/16 10:46:58;;;;;;;22.20;14.90;;;;;;;2.94;95.31;101938.29;108132;1256;73482;-71
2023/12/16 10:49:31;;;;;;;20.40;14.00;;;;;;;2.91;95.92;101939.97;107979;1256;72904;-70
2023/12/16 10:52:05;;;;;;;23.60;16.30;;;;;;;2.85;96.36;101939.80;107961;1257;61359;-71
2023/12/16 10:54:36;;;;;;;22.80;15.50;;;;;;;2.82;96.90;101939.63;108113;1256;59499;-70
2023/12/16 10:57:24;;;;;;;24.70;16.60;;;;;;;2.83;97.66;101939.33;107993;1256;72673;-70
2023/12/16 11:00:07;;;;;;;25.70;16.90;;;;;;;2.84;98.24;101939.63;107900;1256;71874;-70
2023/12/16 11:02:37;;;;;;;24.70;16.50;;;;;;;2.84;98.61;101937.84;108113;1259;71393;-71
2023/12/16 11:05:07;;;;;;;23.90;15.80;;;;;;;2.86;99.17;101933.25;107990;1256;60913;-71
2023/12/16 11:07:41;;;;;;;22.90;15.80;;;;;;;2.92;99.55;101930.37;108048;1255;61350;-70
2023/12/16 11:10:09;;;;;;;25.30;17.00;;;;;;;2.95;99.69;101929.33;108137;1256;72543;-70
2023/12/16 11:12:37;;;;;;;27.30;18.60;;;;;;;2.97;99.87;101925.23;108125;1256;71450;-70
2023/12/16 11:15:05;;;;;;;28.60;18.20;;;;;;;2.97;99.79;101925.47;108160;1256;70456;-70